createdAt,value
2022-10-15T00:00:16.457Z,15.88
2022-10-15T00:03:19.931Z,15.97
2022-10-15T00:06:23.148Z,15.98
2022-10-15T00:09:28.128Z,15.89
2022-10-15T00:12:31.320Z,15.97
2022-10-15T00:15:37.051Z,15.95
2022-10-15T00:18:41.122Z,15.70
2022-10-15T00:21:44.476Z,15.92
2022-10-15T00:24:49.063Z,15.91
2022-10-15T00:27:52.280Z,15.21
2022-10-15T00:31:01.708Z,15.83
2022-10-15T00:34:05.037Z,15.71
2022-10-15T00:37:08.489Z,15.88
2022-10-15T00:40:15.734Z,15.88
2022-10-15T00:43:18.962Z,15.94
2022-10-15T00:46:26.136Z,15.94
2022-10-15T00:49:32.544Z,16.05
2022-10-15T00:52:43.664Z,16.03
2022-10-15T00:55:48.350Z,16.04
2022-10-15T00:58:54.421Z,16.02
2022-10-15T01:01:57.658Z,15.81
2022-10-15T01:05:00.926Z,16.03
2022-10-15T01:08:04.313Z,15.98
2022-10-15T01:11:21.612Z,15.87
2022-10-15T01:14:36.811Z,15.97
2022-10-15T01:17:46.368Z,15.90
2022-10-15T01:20:56.417Z,15.94
2022-10-15T01:24:30.701Z,15.83
2022-10-15T01:27:43.522Z,15.77
2022-10-15T01:30:59.682Z,15.69
2022-10-15T01:34:05.751Z,15.67
2022-10-15T01:37:14.224Z,15.83
2022-10-15T01:40:22.332Z,15.90
2022-10-15T01:43:31.957Z,15.78
2022-10-15T01:46:59.377Z,15.86
2022-10-15T01:50:06.279Z,15.81
2022-10-15T01:53:12.404Z,15.79
2022-10-15T01:56:21.783Z,15.67
2022-10-15T01:59:29.213Z,15.78
2022-10-15T02:02:33.790Z,15.72
2022-10-15T02:05:43.689Z,15.57
2022-10-15T02:08:56.964Z,15.48
2022-10-15T02:12:10.250Z,15.59
2022-10-15T02:15:20.440Z,15.67
2022-10-15T02:18:32.675Z,15.73
2022-10-15T02:21:43.195Z,15.58
2022-10-15T02:24:55.514Z,15.32
2022-10-15T02:28:01.107Z,15.60
2022-10-15T02:31:05.256Z,15.54
2022-10-15T02:34:13.288Z,15.60
2022-10-15T02:37:19.619Z,15.40
2022-10-15T02:40:27.364Z,15.45
2022-10-15T02:43:32.243Z,15.70
2022-10-15T02:46:36.005Z,15.60
2022-10-15T02:49:40.679Z,15.49
2022-10-15T02:52:44.054Z,15.71
2022-10-15T02:55:48.139Z,15.81
2022-10-15T02:58:51.362Z,15.83
2022-10-15T03:01:55.985Z,15.71
2022-10-15T03:05:02.007Z,15.62
2022-10-15T03:08:05.732Z,15.53
2022-10-15T03:11:09.464Z,15.51
2022-10-15T03:14:14.519Z,15.57
2022-10-15T03:17:17.973Z,15.19
2022-10-15T03:20:22.631Z,15.46
2022-10-15T03:23:26.083Z,15.58
2022-10-15T03:26:39.003Z,15.58
2022-10-15T03:29:42.622Z,15.57
2022-10-15T03:32:45.944Z,15.56
2022-10-15T03:35:50.774Z,15.60
2022-10-15T03:38:54.107Z,15.31
2022-10-15T03:41:57.397Z,15.29
2022-10-15T03:45:10.049Z,15.27
2022-10-15T03:48:13.906Z,15.38
2022-10-15T03:51:22.735Z,15.18
2022-10-15T03:54:33.062Z,15.08
2022-10-15T03:57:36.760Z,15.46
2022-10-15T04:00:42.875Z,15.47
2022-10-15T04:03:47.149Z,15.58
2022-10-15T04:06:54.899Z,15.65
2022-10-15T04:09:58.318Z,15.55
2022-10-15T04:13:11.580Z,15.60
2022-10-15T04:16:16.599Z,15.71
2022-10-15T04:19:19.940Z,15.74
2022-10-15T04:22:34.890Z,15.66
2022-10-15T04:25:38.859Z,15.76
2022-10-15T04:28:42.160Z,15.61
2022-10-15T04:31:46.205Z,15.78
2022-10-15T04:34:49.603Z,15.87
2022-10-15T04:37:58.889Z,15.76
2022-10-15T04:41:04.927Z,15.79
2022-10-15T04:44:21.994Z,15.85
2022-10-15T04:47:30.642Z,15.91
2022-10-15T04:50:45.502Z,15.97
2022-10-15T04:53:58.048Z,15.93
2022-10-15T04:57:01.315Z,15.98
2022-10-15T05:00:05.544Z,16.05
2022-10-15T05:03:08.805Z,16.04
2022-10-15T05:06:34.289Z,15.91
2022-10-15T05:09:52.589Z,16.01
2022-10-15T05:12:56.990Z,15.92
2022-10-15T05:16:13.602Z,16.14
2022-10-15T05:19:18.063Z,16.20
2022-10-15T05:22:21.737Z,16.21
2022-10-15T05:25:36.503Z,16.17
2022-10-15T05:28:40.737Z,16.10
2022-10-15T05:31:44.040Z,16.21
2022-10-15T05:34:52.514Z,16.20
2022-10-15T05:37:55.880Z,16.35
2022-10-15T05:41:01.462Z,16.35
2022-10-15T05:44:05.006Z,16.24
2022-10-15T05:47:11.949Z,16.17
2022-10-15T05:50:17.154Z,16.34
2022-10-15T05:53:23.818Z,16.45
2022-10-15T05:56:40.100Z,16.51
2022-10-15T05:59:43.338Z,16.50
2022-10-15T06:02:46.679Z,16.42
2022-10-15T06:05:50.116Z,16.50
2022-10-15T06:08:54.082Z,16.45
2022-10-15T06:11:58.669Z,16.38
2022-10-15T06:15:01.894Z,16.39
2022-10-15T06:18:05.341Z,16.31
2022-10-15T06:21:09.012Z,16.47
2022-10-15T06:24:12.658Z,16.37
2022-10-15T06:27:17.326Z,16.34
2022-10-15T06:30:21.387Z,16.15
2022-10-15T06:33:24.635Z,16.40
2022-10-15T06:36:27.821Z,16.43
2022-10-15T06:39:32.556Z,16.58
2022-10-15T06:42:37.291Z,16.67
2022-10-15T06:45:42.662Z,16.82
2022-10-15T06:48:53.132Z,17.13
2022-10-15T06:52:01.022Z,17.37
2022-10-15T06:55:07.893Z,17.49
2022-10-15T06:58:12.558Z,17.45
2022-10-15T07:01:15.762Z,17.26
2022-10-15T07:04:18.935Z,17.73
2022-10-15T07:07:22.193Z,18.02
2022-10-15T07:10:26.695Z,18.17
2022-10-15T07:13:32.035Z,18.15
2022-10-15T07:16:39.472Z,18.04
2022-10-15T07:19:42.671Z,18.35
2022-10-15T07:22:45.972Z,18.05
2022-10-15T07:25:49.171Z,18.23
2022-10-15T07:28:53.822Z,18.34
2022-10-15T07:31:57.121Z,18.10
2022-10-15T07:35:00.304Z,18.39
2022-10-15T07:38:04.663Z,18.53
2022-10-15T07:41:09.082Z,18.56
2022-10-15T07:44:19.976Z,18.73
2022-10-15T07:47:23.549Z,18.70
2022-10-15T07:50:29.307Z,19.34
2022-10-15T07:53:37.028Z,19.59
2022-10-15T07:56:40.713Z,20.36
2022-10-15T07:59:45.299Z,20.65
2022-10-15T08:02:48.614Z,21.12
2022-10-15T08:05:56.344Z,21.40
2022-10-15T08:09:00.667Z,21.74
2022-10-15T08:12:07.157Z,21.98
2022-10-15T08:15:12.449Z,22.18
2022-10-15T08:18:15.827Z,22.15
2022-10-15T08:21:19.046Z,22.68
2022-10-15T08:24:22.302Z,22.75
2022-10-15T08:27:25.538Z,22.71
2022-10-15T08:30:34.806Z,22.62
2022-10-15T08:33:46.543Z,22.87
2022-10-15T08:36:49.715Z,23.12
2022-10-15T08:39:52.923Z,23.38
2022-10-15T08:42:56.908Z,23.53
2022-10-15T08:46:05.178Z,23.62
2022-10-15T08:49:13.987Z,23.69
2022-10-15T08:52:24.135Z,23.90
2022-10-15T08:55:35.804Z,23.94
2022-10-15T08:58:50.163Z,24.10
2022-10-15T09:02:00.220Z,23.82
2022-10-15T09:05:17.097Z,24.02
2022-10-15T09:08:26.649Z,24.02
2022-10-15T09:11:42.435Z,23.97
2022-10-15T09:14:48.953Z,24.24
2022-10-15T09:17:55.434Z,24.12
2022-10-15T09:21:03.623Z,24.20
2022-10-15T09:24:07.611Z,24.20
2022-10-15T09:27:17.423Z,24.35
2022-10-15T09:30:34.910Z,24.08
2022-10-15T09:33:44.887Z,24.38
2022-10-15T09:36:54.292Z,24.48
2022-10-15T09:40:23.538Z,24.69
2022-10-15T09:43:35.132Z,24.69
2022-10-15T09:46:45.322Z,24.59
2022-10-15T09:49:50.018Z,23.86
2022-10-15T09:53:11.327Z,24.86
2022-10-15T09:56:19.571Z,25.20
2022-10-15T09:59:24.878Z,25.40
2022-10-15T10:02:29.460Z,24.91
2022-10-15T10:05:38.135Z,24.21
2022-10-15T10:12:01.253Z,22.83
2022-10-15T10:15:08.740Z,22.50
2022-10-15T10:18:20.312Z,22.29
2022-10-15T10:21:27.712Z,21.66
2022-10-15T10:24:34.513Z,21.65
2022-10-15T10:27:37.770Z,21.73
2022-10-15T10:30:50.412Z,21.64
2022-10-15T10:33:53.831Z,21.42
2022-10-15T10:36:58.617Z,21.36
2022-10-15T10:40:02.380Z,21.62
2022-10-15T10:43:18.055Z,22.46
2022-10-15T10:46:24.420Z,23.54
2022-10-15T10:49:32.843Z,23.89
2022-10-15T10:52:39.055Z,24.05
2022-10-15T10:55:43.419Z,24.17
2022-10-15T10:58:53.814Z,24.36
2022-10-15T11:01:57.903Z,24.09
2022-10-15T11:05:01.137Z,23.64
2022-10-15T11:08:19.834Z,23.15
2022-10-15T11:11:31.516Z,23.69
2022-10-15T11:14:46.492Z,23.78
2022-10-15T11:17:59.093Z,22.98
2022-10-15T11:21:13.633Z,22.97
2022-10-15T11:24:25.978Z,22.48
2022-10-15T11:27:45.946Z,22.15
2022-10-15T11:30:56.195Z,22.66
2022-10-15T11:34:15.820Z,23.17
2022-10-15T11:37:35.229Z,23.63
2022-10-15T11:40:52.737Z,23.02
2022-10-15T11:44:09.677Z,24.02
2022-10-15T11:47:27.290Z,24.45
2022-10-15T11:50:34.326Z,24.36
2022-10-15T11:54:09.686Z,24.36
2022-10-15T11:57:20.207Z,24.63
2022-10-15T12:00:33.858Z,24.34
2022-10-15T12:03:42.128Z,24.22
2022-10-15T12:06:48.877Z,24.25
2022-10-15T12:09:55.729Z,24.17
2022-10-15T12:13:07.249Z,24.19
2022-10-15T12:16:21.611Z,24.45
2022-10-15T12:19:29.979Z,24.09
2022-10-15T12:22:37.837Z,24.33
2022-10-15T12:25:46.502Z,24.12
2022-10-15T12:28:53.430Z,24.12
2022-10-15T12:31:57.262Z,23.98
2022-10-15T12:35:06.010Z,24.36
2022-10-15T12:38:28.974Z,24.38
2022-10-15T12:41:38.563Z,24.75
2022-10-15T12:44:50.016Z,24.53
2022-10-15T12:47:56.085Z,24.09
2022-10-15T12:51:38.828Z,24.65
2022-10-15T12:54:43.471Z,24.22
2022-10-15T12:58:02.913Z,24.39
2022-10-15T13:01:28.242Z,24.09
2022-10-15T13:04:39.930Z,24.22
2022-10-15T13:07:48.621Z,23.83
2022-10-15T13:10:55.862Z,24.04
2022-10-15T13:14:02.676Z,24.12
2022-10-15T13:17:16.477Z,23.75
2022-10-15T13:20:34.686Z,23.48
2022-10-15T13:23:38.340Z,23.46
2022-10-15T13:26:42.025Z,23.58
2022-10-15T13:29:56.194Z,23.69
2022-10-15T13:33:01.237Z,24.07
2022-10-15T13:36:08.886Z,23.60
2022-10-15T13:39:30.374Z,23.79
2022-10-15T13:42:33.650Z,23.32
2022-10-15T13:45:37.472Z,23.32
2022-10-15T13:56:49.485Z,22.73
2022-10-15T13:59:54.230Z,22.71
2022-10-15T14:03:19.346Z,22.59
2022-10-15T14:06:25.898Z,22.27
2022-10-15T14:09:33.230Z,22.30
2022-10-15T14:12:36.489Z,22.22
2022-10-15T14:15:42.559Z,22.41
2022-10-15T14:18:49.393Z,22.22
2022-10-15T14:21:54.430Z,22.21
2022-10-15T14:24:58.291Z,22.22
2022-10-15T14:28:11.374Z,22.56
2022-10-15T14:31:31.236Z,22.37
2022-10-15T14:34:39.772Z,22.45
2022-10-15T14:37:44.399Z,22.48
2022-10-15T14:40:58.375Z,22.21
2022-10-15T14:44:04.392Z,22.15
2022-10-15T14:47:11.650Z,21.81
2022-10-15T14:50:14.933Z,21.62
2022-10-15T14:53:21.966Z,21.64
2022-10-15T14:56:31.288Z,21.68
2022-10-15T14:59:38.608Z,21.73
2022-10-15T15:02:42.305Z,21.69
2022-10-15T15:05:47.269Z,21.50
2022-10-15T15:08:52.141Z,21.59
2022-10-15T15:11:55.430Z,21.58
2022-10-15T15:14:59.163Z,21.56
2022-10-15T15:18:02.416Z,21.32
2022-10-15T15:21:08.901Z,21.26
2022-10-15T15:24:13.571Z,20.96
2022-10-15T15:27:26.242Z,20.98
2022-10-15T15:30:32.864Z,20.96
2022-10-15T15:33:36.546Z,20.86
2022-10-15T15:36:40.214Z,20.71
2022-10-15T15:39:44.927Z,20.59
2022-10-15T15:42:49.109Z,20.41
2022-10-15T15:45:52.383Z,20.39
2022-10-15T15:48:57.096Z,20.33
2022-10-15T15:52:00.447Z,20.17
2022-10-15T15:55:05.776Z,20.16
2022-10-15T15:58:09.039Z,20.28
2022-10-15T16:01:12.400Z,20.00
2022-10-15T16:04:15.822Z,19.65
2022-10-15T16:07:19.652Z,19.55
2022-10-15T16:10:24.861Z,19.72
2022-10-15T16:13:28.069Z,19.64
2022-10-15T16:16:31.257Z,19.40
2022-10-15T16:19:34.779Z,19.48
2022-10-15T16:22:38.002Z,19.38
2022-10-15T16:25:42.541Z,19.28
2022-10-15T16:28:45.877Z,19.06
2022-10-15T16:31:49.354Z,18.90
2022-10-15T16:34:52.555Z,18.78
2022-10-15T16:37:56.321Z,18.76
2022-10-15T16:41:01.995Z,18.59
2022-10-15T16:44:05.521Z,18.78
2022-10-15T16:47:08.786Z,18.65
2022-10-15T16:50:12.021Z,18.48
2022-10-15T16:53:15.348Z,18.43
2022-10-15T16:56:22.727Z,18.45
2022-10-15T16:59:26.046Z,18.38
2022-10-15T17:02:29.308Z,18.36
2022-10-15T17:05:32.891Z,18.18
2022-10-15T17:08:40.063Z,18.05
2022-10-15T17:11:46.968Z,18.33
2022-10-15T17:14:52.213Z,18.18
2022-10-15T17:17:55.414Z,18.16
2022-10-15T17:20:58.656Z,18.17
2022-10-15T17:24:04.391Z,18.08
2022-10-15T17:27:09.066Z,17.77
2022-10-15T17:30:12.775Z,17.72
2022-10-15T17:33:16.031Z,17.74
2022-10-15T17:36:21.080Z,17.75
2022-10-15T17:39:24.995Z,17.99
2022-10-15T17:42:29.660Z,17.90
2022-10-15T17:45:33.757Z,17.98
2022-10-15T17:48:38.135Z,17.82
2022-10-15T17:51:41.356Z,17.82
2022-10-15T17:54:45.240Z,17.78
2022-10-15T17:57:49.907Z,17.57
2022-10-15T18:00:55.215Z,17.75
2022-10-15T18:03:58.476Z,17.39
2022-10-15T18:07:01.736Z,17.48
2022-10-15T18:10:05.314Z,17.40
2022-10-15T18:13:09.992Z,17.41
2022-10-15T18:16:13.424Z,17.46
2022-10-15T18:19:16.630Z,17.60
2022-10-15T18:22:20.537Z,17.38
2022-10-15T18:25:23.809Z,17.55
2022-10-15T18:28:28.480Z,17.37
2022-10-15T18:31:31.787Z,17.40
2022-10-15T18:34:35.358Z,17.32
2022-10-15T18:37:38.509Z,17.12
2022-10-15T18:40:41.925Z,17.31
2022-10-15T18:43:51.037Z,17.47
2022-10-15T18:46:54.282Z,17.45
2022-10-15T18:49:57.458Z,17.17
2022-10-15T18:53:03.196Z,17.15
2022-10-15T18:56:07.592Z,17.15
2022-10-15T18:59:12.217Z,17.09
2022-10-15T19:02:15.583Z,17.15
2022-10-15T19:05:19.091Z,17.25
2022-10-15T19:08:22.287Z,17.15
2022-10-15T19:11:26.515Z,17.20
2022-10-15T19:14:31.373Z,17.29
2022-10-15T19:17:34.686Z,17.16
2022-10-15T19:20:39.642Z,17.26
2022-10-15T19:23:43.799Z,17.15
2022-10-15T19:26:49.018Z,17.31
2022-10-15T19:29:53.619Z,17.35
2022-10-15T19:32:56.898Z,17.31
2022-10-15T19:36:00.792Z,17.50
2022-10-15T19:39:07.168Z,17.37
2022-10-15T19:42:10.864Z,17.28
2022-10-15T19:48:24.829Z,17.43
2022-10-15T19:51:28.170Z,17.61
2022-10-15T19:54:31.426Z,17.65
2022-10-15T19:57:34.654Z,17.46
2022-10-15T20:00:39.426Z,17.61
2022-10-15T20:03:42.705Z,17.44
2022-10-15T20:06:46.172Z,17.24
2022-10-15T20:09:49.439Z,17.16
2022-10-15T20:12:52.607Z,17.19
2022-10-15T20:15:57.258Z,17.01
2022-10-15T20:19:02.488Z,16.95
2022-10-15T20:22:05.758Z,16.93
2022-10-15T20:25:09.637Z,16.73
2022-10-15T20:28:13.853Z,16.84
2022-10-15T20:31:21.650Z,17.06
2022-10-15T20:34:25.446Z,16.97
2022-10-15T20:37:28.740Z,16.86
2022-10-15T20:40:32.134Z,16.81
2022-10-15T20:43:35.410Z,16.95
2022-10-15T20:46:44.994Z,16.94
2022-10-15T20:49:51.994Z,17.05
2022-10-15T20:52:57.081Z,16.64
2022-10-15T20:56:01.538Z,16.63
2022-10-15T20:59:05.235Z,16.72
2022-10-15T21:02:10.017Z,16.50
2022-10-15T21:05:13.184Z,16.38
2022-10-15T21:08:16.447Z,16.36
2022-10-15T21:11:19.685Z,16.40
2022-10-15T21:14:23.038Z,16.47
2022-10-15T21:17:28.117Z,16.66
2022-10-15T21:20:31.529Z,16.64
2022-10-15T21:23:35.338Z,16.76
2022-10-15T21:26:38.557Z,16.52
2022-10-15T21:29:42.643Z,16.50
2022-10-15T21:32:47.291Z,16.67
2022-10-15T21:35:50.566Z,16.42
2022-10-15T21:38:55.105Z,16.57
2022-10-15T21:41:58.478Z,16.55
2022-10-15T21:45:01.651Z,16.49
2022-10-15T21:48:06.875Z,16.46
2022-10-15T21:51:12.625Z,16.21
2022-10-15T21:54:15.830Z,16.56
2022-10-15T21:57:19.082Z,16.44
2022-10-15T22:00:22.331Z,16.53
2022-10-15T22:03:27.012Z,16.41
2022-10-15T22:06:32.073Z,16.38
2022-10-15T22:09:35.445Z,16.40
2022-10-15T22:12:38.642Z,16.18
2022-10-15T22:15:41.999Z,16.37
2022-10-15T22:18:47.176Z,16.08
2022-10-15T22:21:50.427Z,16.37
2022-10-15T22:24:54.649Z,16.47
2022-10-15T22:27:57.882Z,16.50
2022-10-15T22:31:04.772Z,16.37
2022-10-15T22:34:09.407Z,16.35
2022-10-15T22:37:12.640Z,15.97
2022-10-15T22:40:16.013Z,16.17
2022-10-15T22:43:19.289Z,16.20
2022-10-15T22:46:22.420Z,16.00
2022-10-15T22:49:27.248Z,15.93
2022-10-15T22:52:30.479Z,15.79
2022-10-15T22:55:33.761Z,15.78
2022-10-15T22:58:37.756Z,15.70
2022-10-15T23:01:41.105Z,15.60
2022-10-15T23:04:45.811Z,15.62
2022-10-15T23:07:49.125Z,15.53
2022-10-15T23:10:52.381Z,15.59
2022-10-15T23:13:57.522Z,15.30
2022-10-15T23:17:00.684Z,15.44
2022-10-15T23:20:05.920Z,15.18
2022-10-15T23:23:09.137Z,15.45
2022-10-15T23:26:14.548Z,15.43
2022-10-15T23:29:20.462Z,15.41
2022-10-15T23:32:24.139Z,15.45
2022-10-15T23:35:28.868Z,15.39
2022-10-15T23:38:32.500Z,15.33
2022-10-15T23:41:35.778Z,15.41
2022-10-15T23:47:42.071Z,15.13
2022-10-15T23:50:46.614Z,15.18
2022-10-15T23:53:50.513Z,14.95
2022-10-15T23:56:53.764Z,15.31
2022-10-15T23:59:57.026Z,15.38
